Time;durP1;ratioP1;P1;durP2;ratioP2;P2;SDS_P1;SDS_P2;PMS_P1;PMS_P2;Temp;Humidity;BMP_temperature;BMP_pressure;BME280_temperature;BME280_humidity;BME280_pressure;Samples;Min_cycle;Max_cycle;Signal;HPM_P1;HPM_P2
2021/04/24 00:00:11;;;;;;;22.67;13.43;;;;;;;7.99;75.81;101041.47;2795094;85;21198;-60
2021/04/24 00:04:16;;;;;;;22.50;13.72;;;;;;;8.09;75.51;101038.67;2795034;84;21603;-60
2021/04/24 00:08:20;;;;;;;24.27;12.58;;;;;;;8.12;75.09;101037.16;2795037;85;21161;-60
2021/04/24 00:12:23;;;;;;;19.17;12.00;;;;;;;8.17;75.48;101035.56;2794831;85;21145;-59
2021/04/24 00:16:27;;;;;;;20.68;12.37;;;;;;;8.25;75.30;101036.41;2794844;85;21157;-61
2021/04/24 00:20:32;;;;;;;22.82;13.35;;;;;;;8.37;75.48;101032.19;2794702;84;21630;-61
2021/04/24 00:24:35;;;;;;;21.07;13.70;;;;;;;8.48;75.08;101031.05;2795013;85;21169;-60
2021/04/24 00:28:38;;;;;;;21.77;11.88;;;;;;;8.61;74.72;101026.36;2795034;83;21173;-60
2021/04/24 00:32:42;;;;;;;13.38;10.60;;;;;;;8.58;74.21;101034.02;2795076;84;21130;-60
2021/04/24 00:36:45;;;;;;;16.27;10.78;;;;;;;8.55;74.19;101023.60;2795363;84;21158;-61
2021/04/24 00:40:48;;;;;;;23.47;13.55;;;;;;;8.48;74.13;101026.23;2794938;85;21141;-60
2021/04/24 00:44:53;;;;;;;17.67;10.25;;;;;;;8.47;74.23;101027.18;2795300;85;21125;-61
2021/04/24 00:48:57;;;;;;;13.50;10.20;;;;;;;8.44;74.09;101028.20;2795177;85;21190;-59
2021/04/24 00:53:03;;;;;;;17.42;11.00;;;;;;;8.39;73.76;101034.27;2794488;85;21150;-60
2021/04/24 00:57:07;;;;;;;19.82;9.75;;;;;;;8.38;73.81;101029.43;2795120;85;21638;-59
2021/04/24 01:01:10;;;;;;;13.18;8.48;;;;;;;8.26;73.64;101041.63;2766793;85;21214;-60
2021/04/24 01:05:18;;;;;;;17.42;9.00;;;;;;;8.21;73.86;101030.91;2794977;85;21153;-60
2021/04/24 01:09:21;;;;;;;20.08;10.15;;;;;;;8.14;73.99;101032.62;2766884;86;21186;-60
2021/04/24 01:13:24;;;;;;;11.30;7.90;;;;;;;8.10;74.35;101033.75;2795029;85;21137;-59
2021/04/24 01:17:28;;;;;;;15.63;9.20;;;;;;;8.08;74.19;101023.72;2767150;86;21638;-61
2021/04/24 01:21:33;;;;;;;15.63;8.85;;;;;;;8.04;74.54;101026.63;2795080;85;21168;-60
2021/04/24 01:25:40;;;;;;;22.95;12.45;;;;;;;8.08;74.17;101021.07;2767399;86;21172;-59
2021/04/24 01:29:43;;;;;;;;;;;;;;;8.09;74.29;101021.45;2811399;83;21630;-61
2021/04/24 01:33:46;;;;;;;15.63;9.98;;;;;;;8.10;74.10;101020.50;2838258;83;20179;-61
2021/04/24 01:37:49;;;;;;;18.37;11.48;;;;;;;8.03;74.01;101011.68;2838052;83;21154;-60
2021/04/24 01:41:52;;;;;;;15.03;8.63;;;;;;;7.96;74.27;101009.86;2793125;84;21226;-60
2021/04/24 01:45:56;;;;;;;15.78;9.45;;;;;;;7.92;74.31;101007.86;2773105;85;21145;-60
2021/04/24 01:49:59;;;;;;;15.93;10.53;;;;;;;7.86;74.28;101005.58;2837783;83;21567;-60
2021/04/24 01:54:03;;;;;;;18.90;10.75;;;;;;;7.82;74.52;100995.63;2792962;85;21171;-60
2021/04/24 01:58:10;;;;;;;21.00;12.75;;;;;;;7.82;74.44;100995.63;2772582;85;21175;-61
2021/04/24 02:02:13;;;;;;;14.73;7.55;;;;;;;7.83;74.47;100994.69;2772719;84;21219;-61
2021/04/24 02:06:16;;;;;;;11.05;7.00;;;;;;;7.85;74.14;100995.94;2773058;85;21223;-60
2021/04/24 02:10:19;;;;;;;16.65;10.48;;;;;;;7.73;73.98;100985.59;2772628;85;21636;-59
2021/04/24 02:14:22;;;;;;;17.55;8.78;;;;;;;7.61;74.48;100987.62;2772925;85;21187;-59
2021/04/24 02:18:26;;;;;;;15.60;8.90;;;;;;;7.57;74.58;100988.30;2772737;85;21203;-60
2021/04/24 02:22:29;;;;;;;13.15;7.75;;;;;;;7.42;74.69;100986.91;2772548;85;21624;-60
2021/04/24 02:26:32;;;;;;;12.05;7.67;;;;;;;7.33;75.00;100989.23;2772727;85;21155;-59
2021/04/24 02:30:36;;;;;;;19.00;8.10;;;;;;;7.32;75.31;100979.58;2760950;85;21174;-60
2021/04/24 02:34:42;;;;;;;17.32;8.80;;;;;;;7.34;74.98;100974.56;2754648;86;21171;-59
2021/04/24 02:38:51;;;;;;;13.93;8.00;;;;;;;7.28;74.90;100974.47;2778212;85;21178;-60
2021/04/24 02:42:54;;;;;;;11.88;7.53;;;;;;;7.28;74.51;100968.31;2754746;86;21577;-60
2021/04/24 02:46:58;;;;;;;13.53;9.08;;;;;;;7.24;74.34;100966.30;2778088;85;21134;-60
2021/04/24 02:51:01;;;;;;;16.50;8.18;;;;;;;7.28;74.29;100966.53;2754639;86;21172;-61
2021/04/24 02:55:10;;;;;;;14.45;8.20;;;;;;;7.26;74.14;100959.12;2778088;85;21146;-60
2021/04/24 02:59:13;;;;;;;13.93;6.95;;;;;;;7.22;74.19;100959.41;2754818;86;21112;-60
2021/04/24 03:03:16;;;;;;;16.57;7.67;;;;;;;7.24;74.42;100963.65;2778032;85;21194;-60
2021/04/24 03:07:19;;;;;;;21.82;10.53;;;;;;;7.20;74.14;100956.83;2754646;86;21168;-60
2021/04/24 03:11:22;;;;;;;12.23;9.35;;;;;;;7.17;74.28;100953.50;2777801;85;21667;-60
2021/04/24 03:15:26;;;;;;;20.62;11.12;;;;;;;7.14;74.39;100948.77;2754635;86;21171;-60
2021/04/24 03:19:29;;;;;;;12.28;7.62;;;;;;;7.14;74.31;100946.13;2778159;85;21166;-60
2021/04/24 03:23:32;;;;;;;19.70;11.00;;;;;;;7.07;74.48;100951.84;2754925;86;21108;-60
2021/04/24 03:27:36;;;;;;;35.73;17.23;;;;;;;7.08;74.44;100954.91;2777969;85;21161;-61
2021/04/24 03:31:39;;;;;;;24.63;12.05;;;;;;;7.10;74.14;100951.70;2731777;86;21196;-60
2021/04/24 03:35:41;;;;;;;37.88;20.27;;;;;;;7.10;73.95;100955.18;2744815;86;21469;-60
2021/04/24 03:39:44;;;;;;;47.58;25.05;;;;;;;6.97;73.96;100953.70;2744704;86;21231;-60
2021/04/24 03:43:48;;;;;;;37.65;21.20;;;;;;;6.80;74.28;100958.63;2744732;86;21161;-60
2021/04/24 03:47:54;;;;;;;46.42;21.42;;;;;;;6.82;74.55;100953.23;2744689;85;21554;-59
2021/04/24 03:51:57;;;;;;;41.90;18.60;;;;;;;6.86;74.28;100958.72;2772782;85;21186;-60
2021/04/24 03:56:00;;;;;;;13.98;9.48;;;;;;;6.85;73.71;100955.70;2772734;85;21227;-61
2021/04/24 04:00:08;;;;;;;16.42;9.23;;;;;;;6.84;73.68;100953.99;2772833;85;21167;-60
2021/04/24 04:04:10;;;;;;;22.45;12.15;;;;;;;6.78;73.64;100958.31;2772524;85;21198;-61
2021/04/24 04:08:15;;;;;;;11.00;7.20;;;;;;;6.83;74.45;100961.55;2772923;85;21171;-61
2021/04/24 04:12:17;;;;;;;8.68;6.08;;;;;;;6.91;74.34;100965.95;2772713;85;21178;-61
2021/04/24 04:16:20;;;;;;;12.18;7.37;;;;;;;6.96;73.72;100959.94;2772436;85;21182;-61
2021/04/24 04:20:24;;;;;;;11.85;6.40;;;;;;;7.04;74.00;100962.15;2772753;85;21147;-61
2021/04/24 04:24:27;;;;;;;7.65;5.87;;;;;;;7.32;74.71;100955.77;2772607;85;21217;-61
2021/04/24 04:28:30;;;;;;;12.05;6.83;;;;;;;7.45;74.25;100954.58;2772651;85;21175;-61
2021/04/24 04:32:32;;;;;;;9.65;6.60;;;;;;;7.47;74.00;100949.59;2773431;85;21202;-60
2021/04/24 04:36:35;;;;;;;8.95;6.03;;;;;;;7.52;73.82;100950.16;2745721;86;21176;-61
2021/04/24 04:40:38;;;;;;;10.03;6.15;;;;;;;7.71;75.01;100947.76;2744971;86;21133;-61
2021/04/24 04:44:41;;;;;;;11.93;7.92;;;;;;;8.02;75.27;100951.20;2744739;86;21140;-61
2021/04/24 04:48:44;;;;;;;6.53;4.72;;;;;;;8.45;75.30;100953.02;2719558;85;21185;-61
2021/04/24 04:52:47;;;;;;;9.30;6.25;;;;;;;8.55;71.92;100963.94;2694554;88;21203;-61
2021/04/24 04:56:50;;;;;;;9.10;5.95;;;;;;;8.78;73.37;100965.15;2695452;88;21212;-61
2021/04/24 05:00:53;;;;;;;9.48;7.40;;;;;;;9.18;72.02;100957.73;2694811;88;21663;-60
2021/04/24 05:04:58;;;;;;;11.20;6.12;;;;;;;9.45;71.78;100957.34;2695191;88;21224;-61
2021/04/24 05:09:00;;;;;;;14.00;6.95;;;;;;;10.21;73.71;100961.05;2695108;88;21176;-61
2021/04/24 05:13:03;;;;;;;13.38;6.65;;;;;;;11.02;68.79;100971.86;2695251;88;21211;-61
2021/04/24 05:17:10;;;;;;;11.12;6.50;;;;;;;11.31;66.39;100968.84;2695154;88;21171;-61
2021/04/24 05:21:13;;;;;;;8.83;5.87;;;;;;;11.54;64.85;100968.47;2695019;87;21220;-61
2021/04/24 05:25:17;;;;;;;16.73;7.70;;;;;;;11.90;63.53;100967.98;2695360;88;21214;-61
2021/04/24 05:29:20;;;;;;;10.25;6.72;;;;;;;11.99;63.26;100971.25;2695165;87;21180;-61
2021/04/24 05:33:23;;;;;;;12.28;7.75;;;;;;;12.19;63.10;100968.06;2689221;87;21180;-61
2021/04/24 05:37:26;;;;;;;15.45;8.03;;;;;;;12.78;62.33;100972.28;2720486;87;21188;-61
2021/04/24 05:41:29;;;;;;;14.73;9.98;;;;;;;12.84;59.61;100971.78;2733215;87;21491;-61
2021/04/24 05:45:32;;;;;;;16.17;7.58;;;;;;;13.26;61.25;100968.87;2787892;85;21183;-60
2021/04/24 05:49:35;;;;;;;13.62;7.78;;;;;;;13.47;57.44;100963.63;2788086;85;21367;-61
2021/04/24 05:53:39;;;;;;;17.05;7.22;;;;;;;13.44;59.63;100966.55;2787927;85;21170;-61
2021/04/24 05:57:42;;;;;;;18.32;10.10;;;;;;;13.85;57.16;100958.67;2788000;85;21203;-61
2021/04/24 06:01:45;;;;;;;14.43;9.03;;;;;;;13.64;57.42;100965.38;2788313;85;21155;-62
2021/04/24 06:05:49;;;;;;;16.20;9.55;;;;;;;14.09;58.29;100965.09;2787868;85;21174;-61
2021/04/24 06:09:52;;;;;;;14.47;9.33;;;;;;;14.55;57.81;100963.42;2788465;85;21203;-60
2021/04/24 06:13:55;;;;;;;18.00;10.05;;;;;;;15.01;57.31;100961.16;2788118;85;21131;-63
2021/04/24 06:17:58;;;;;;;12.58;8.23;;;;;;;15.31;55.61;100957.17;2788272;85;21134;-62
2021/04/24 06:22:01;;;;;;;11.05;8.98;;;;;;;15.37;54.60;100953.44;2788550;85;21179;-62
2021/04/24 06:26:04;;;;;;;10.50;8.80;;;;;;;15.54;53.38;100962.63;2788094;85;21605;-61
2021/04/24 06:30:11;;;;;;;13.88;8.70;;;;;;;15.28;53.36;100964.50;2788087;85;21195;-62
2021/04/24 06:34:14;;;;;;;13.15;8.58;;;;;;;15.33;53.42;100960.55;2784276;85;21175;-61
2021/04/24 06:38:16;;;;;;;14.90;9.28;;;;;;;15.66;54.08;100958.44;2784161;85;21115;-62
2021/04/24 06:42:20;;;;;;;17.50;9.13;;;;;;;16.06;52.92;100953.89;2784350;85;21187;-62
2021/04/24 06:46:23;;;;;;;20.55;9.13;;;;;;;16.23;50.79;100954.95;2784444;85;21163;-64
2021/04/24 06:50:26;;;;;;;18.40;9.78;;;;;;;16.14;51.67;100955.33;2784374;85;21199;-63
2021/04/24 06:54:29;;;;;;;14.38;9.68;;;;;;;15.85;51.67;100947.67;2784120;85;21182;-62
2021/04/24 06:58:32;;;;;;;15.23;8.43;;;;;;;15.72;52.79;100951.15;2784350;85;21186;-61
2021/04/24 07:02:35;;;;;;;13.62;9.50;;;;;;;15.60;52.02;100955.82;2784223;85;21191;-61
2021/04/24 07:06:38;;;;;;;20.15;9.90;;;;;;;15.54;52.79;100951.90;2784089;85;21179;-62
2021/04/24 07:10:41;;;;;;;17.92;9.78;;;;;;;15.52;53.31;100947.14;2784440;85;21151;-60
2021/04/24 07:14:44;;;;;;;14.13;8.93;;;;;;;15.72;53.08;100941.76;2784060;85;21183;-61
2021/04/24 07:18:47;;;;;;;13.88;9.20;;;;;;;15.62;52.25;100939.09;2783978;85;21143;-61
2021/04/24 07:22:50;;;;;;;18.23;9.38;;;;;;;15.48;51.99;100943.06;2784530;85;21175;-62
2021/04/24 07:26:53;;;;;;;19.52;10.00;;;;;;;15.54;52.61;100941.17;2784030;85;21174;-61
2021/04/24 07:30:57;;;;;;;13.95;8.30;;;;;;;15.53;52.11;100941.30;2784251;85;21170;-60
2021/04/24 07:35:01;;;;;;;14.45;7.95;;;;;;;15.56;52.12;100936.98;2784249;85;21628;-61
2021/04/24 07:39:06;;;;;;;8.60;5.85;;;;;;;15.60;51.85;100940.24;2784181;85;21179;-61
2021/04/24 07:43:10;;;;;;;13.93;8.55;;;;;;;15.73;50.10;100942.14;2784490;85;21135;-62
2021/04/24 07:47:13;;;;;;;11.50;6.67;;;;;;;15.80;51.49;100939.70;2784527;85;21203;-62
2021/04/24 07:51:16;;;;;;;9.30;6.30;;;;;;;15.70;50.47;100946.42;2784241;85;21174;-62
2021/04/24 07:55:19;;;;;;;8.85;5.87;;;;;;;15.78;49.06;100937.19;2784434;85;21179;-62
2021/04/24 07:59:22;;;;;;;10.03;6.95;;;;;;;15.91;50.85;100942.75;2784211;85;21191;-61
2021/04/24 08:03:25;;;;;;;12.45;6.10;;;;;;;15.84;49.81;100944.64;2784145;85;21633;-61
2021/04/24 08:07:28;;;;;;;8.63;4.08;;;;;;;15.93;48.10;100934.09;2793699;83;21159;-61
2021/04/24 08:11:32;;;;;;;9.00;4.65;;;;;;;15.83;45.12;100941.61;2831194;83;21151;-62
2021/04/24 08:15:35;;;;;;;12.85;6.35;;;;;;;15.72;46.73;100933.72;2831003;84;21648;-61
2021/04/24 08:19:38;;;;;;;6.70;4.95;;;;;;;15.79;48.29;100932.17;2831164;84;21155;-60
2021/04/24 08:23:41;;;;;;;9.53;4.83;;;;;;;16.08;47.46;100933.12;2831218;83;22139;-60
2021/04/24 08:27:44;;;;;;;10.23;6.28;;;;;;;16.22;47.99;100926.42;2831213;83;21188;-61
2021/04/24 08:31:48;;;;;;;4.67;3.83;;;;;;;15.95;43.50;100932.93;2828969;83;21147;-62
2021/04/24 08:35:51;;;;;;;7.55;3.85;;;;;;;15.87;45.96;100918.03;2832116;83;21171;-63
2021/04/24 08:39:54;;;;;;;8.80;4.03;;;;;;;16.12;47.23;100919.75;2832081;83;21621;-60
2021/04/24 08:43:57;;;;;;;4.33;2.17;;;;;;;16.24;45.18;100920.41;2831662;83;21593;-61
2021/04/24 08:48:01;;;;;;;6.20;3.58;;;;;;;16.42;44.56;100919.97;2831972;83;21147;-61
2021/04/24 08:52:05;;;;;;;6.53;3.83;;;;;;;16.32;41.68;100916.50;2831858;84;21151;-61
2021/04/24 08:56:08;;;;;;;6.53;3.95;;;;;;;16.12;42.48;100919.27;2832110;84;21183;-61
2021/04/24 09:00:15;;;;;;;8.30;4.25;;;;;;;16.06;44.02;100917.15;2809969;84;21163;-61
2021/04/24 09:04:18;;;;;;;9.33;3.92;;;;;;;16.00;42.68;100907.02;2831540;83;21621;-61
2021/04/24 09:08:29;;;;;;;5.40;3.95;;;;;;;15.85;45.54;100906.09;2831678;83;21155;-63
2021/04/24 09:12:39;;;;;;;9.28;4.35;;;;;;;15.81;43.56;100907.38;2831822;84;21143;-62
2021/04/24 09:16:44;;;;;;;7.50;5.08;;;;;;;16.05;46.69;100899.36;2831430;83;21183;-62
2021/04/24 09:20:55;;;;;;;7.50;4.47;;;;;;;16.38;46.05;100901.62;2809728;84;21136;-61
2021/04/24 09:24:58;;;;;;;13.03;5.70;;;;;;;16.11;43.89;100896.11;2831569;84;21208;-63
2021/04/24 09:29:06;;;;;;;8.30;5.10;;;;;;;15.74;46.50;100895.55;2828589;84;21200;-63
2021/04/24 09:33:14;;;;;;;15.25;5.85;;;;;;;15.61;46.54;100896.34;2802237;84;21170;-67
2021/04/24 09:37:20;;;;;;;16.12;6.42;;;;;;;15.48;45.99;100891.30;2801992;85;21155;-65
2021/04/24 09:45:42;;;;;;;8.20;4.55;;;;;;;15.18;48.10;100895.81;2998335;77;23415;-64
2021/04/24 09:49:46;;;;;;;16.77;5.90;;;;;;;15.05;48.36;100895.62;2952336;80;21145;-65
2021/04/24 09:54:01;;;;;;;8.35;4.67;;;;;;;14.90;50.69;100883.11;2952328;79;21450;-65
2021/04/24 09:58:05;;;;;;;10.23;5.78;;;;;;;15.11;51.85;100880.31;2952387;80;21153;-62
2021/04/24 10:02:09;;;;;;;10.32;6.10;;;;;;;15.39;51.14;100879.08;2952374;80;21166;-63
2021/04/24 10:06:33;;;;;;;9.10;5.60;;;;;;;15.59;50.26;100875.03;2952646;80;21121;-65
2021/04/24 10:10:41;;;;;;;8.75;5.05;;;;;;;15.68;49.41;100871.50;2951999;80;21145;-64
2021/04/24 10:14:48;;;;;;;11.20;5.62;;;;;;;15.61;48.70;100874.89;2952070;79;21149;-64
2021/04/24 10:18:51;;;;;;;6.53;4.25;;;;;;;15.56;48.81;100864.11;2952108;80;21177;-65
2021/04/24 10:22:55;;;;;;;7.35;5.05;;;;;;;15.58;48.44;100861.78;2952211;80;21149;-64
2021/04/24 10:27:00;;;;;;;10.75;5.33;;;;;;;15.60;48.42;100863.82;2915634;79;21161;-63
2021/04/24 10:31:04;;;;;;;9.65;4.97;;;;;;;15.31;48.57;100853.98;2902319;80;21141;-64
2021/04/24 10:35:10;;;;;;;8.88;5.42;;;;;;;15.06;48.70;100853.10;2899200;80;21149;-65
2021/04/24 10:39:24;;;;;;;10.53;6.53;;;;;;;14.86;49.78;100857.59;2879077;82;21568;-64
2021/04/24 10:43:29;;;;;;;13.03;6.17;;;;;;;14.79;49.16;100858.64;2892907;80;21616;-66
2021/04/24 10:47:43;;;;;;;9.95;6.42;;;;;;;14.82;51.18;100840.13;2909832;81;21152;-64
2021/04/24 10:52:18;;;;;;;10.80;6.05;;;;;;;14.92;52.25;100844.97;2909684;81;22095;-64
2021/04/24 10:56:30;;;;;;;8.45;5.22;;;;;;;14.90;49.31;100855.49;2953067;80;21158;-64
2021/04/24 11:00:47;;;;;;;24.07;10.43;;;;;;;14.82;49.90;100852.17;2930925;79;21133;-63
2021/04/24 11:04:51;;;;;;;12.82;6.40;;;;;;;15.06;51.87;100847.74;2909523;81;21149;-63
2021/04/24 11:09:20;;;;;;;12.30;6.58;;;;;;;15.21;50.97;100845.47;2909733;81;21496;-63
2021/04/24 11:13:27;;;;;;;10.03;6.72;;;;;;;15.37;49.49;100841.37;2909752;81;21144;-63
2021/04/24 11:17:33;;;;;;;23.73;7.53;;;;;;;15.68;50.34;100830.41;2909874;81;21129;-63
2021/04/24 11:21:36;;;;;;;;;;;;;;;15.90;48.28;100828.38;2912816;81;21125;-65
2021/04/24 11:25:42;;;;;;;13.30;6.42;;;;;;;15.75;47.52;100836.90;2936437;79;20451;-63
2021/04/24 11:29:47;;;;;;;8.50;6.35;;;;;;;15.54;48.56;100839.77;2955925;80;21134;-63
2021/04/24 11:33:50;;;;;;;13.88;6.95;;;;;;;15.35;47.75;100843.34;2956903;80;21630;-62
2021/04/24 11:37:54;;;;;;;9.33;5.37;;;;;;;15.15;49.33;100843.37;2956023;80;21169;-63
2021/04/24 11:41:57;;;;;;;11.78;6.10;;;;;;;15.17;48.48;100833.35;2957096;80;21189;-63
2021/04/24 11:46:02;;;;;;;4.37;3.22;;;;;;;15.28;47.71;100831.84;2952855;80;21160;-63
2021/04/24 11:50:07;;;;;;;9.08;5.33;;;;;;;15.23;47.20;100826.07;2952979;80;21467;-62
2021/04/24 11:54:22;;;;;;;7.63;5.07;;;;;;;15.08;48.16;100839.55;2938099;80;21142;-63
2021/04/24 11:58:25;;;;;;;9.35;6.33;;;;;;;14.75;46.70;100829.63;2909021;81;21615;-63
2021/04/24 12:02:34;;;;;;;6.95;4.50;;;;;;;14.70;49.10;100838.87;2909051;81;21125;-63
2021/04/24 12:06:42;;;;;;;6.30;3.87;;;;;;;15.09;47.16;100833.20;2908859;81;21145;-63
2021/04/24 12:10:46;;;;;;;11.18;4.67;;;;;;;15.50;47.63;100837.03;2908807;81;21121;-63
2021/04/24 12:15:15;;;;;;;11.97;5.08;;;;;;;15.36;45.08;100836.48;2909268;81;21592;-63
2021/04/24 12:19:38;;;;;;;7.72;3.00;;;;;;;15.19;48.48;100838.07;2909306;80;21189;-64
2021/04/24 12:23:43;;;;;;;7.90;3.22;;;;;;;15.14;46.37;100829.11;2909021;80;21615;-62
2021/04/24 12:27:50;;;;;;;;;;;;;;;15.31;44.98;100820.48;2911535;80;21164;-63
2021/04/24 12:31:55;;;;;;;8.50;4.17;;;;;;;15.18;47.38;100822.12;2908583;81;20149;-62
2021/04/24 12:36:03;;;;;;;5.43;3.10;;;;;;;15.40;47.75;100839.22;2909668;81;21193;-62
2021/04/24 12:40:15;;;;;;;12.80;3.77;;;;;;;15.58;47.60;100806.81;2909111;81;21109;-63
2021/04/24 12:44:32;;;;;;;4.30;3.12;;;;;;;15.48;47.83;100813.55;2915512;81;21136;-64
2021/04/24 12:48:42;;;;;;;7.03;3.20;;;;;;;15.34;44.27;100821.05;2923157;81;21637;-64
2021/04/24 12:52:51;;;;;;;6.28;3.40;;;;;;;15.40;45.67;100816.44;2922704;81;21609;-63
2021/04/24 12:57:19;;;;;;;7.05;3.30;;;;;;;15.50;46.77;100816.92;2923207;80;21133;-64
2021/04/24 13:01:27;;;;;;;7.42;3.55;;;;;;;15.62;47.74;100807.70;2922950;81;21571;-61
2021/04/24 13:05:36;;;;;;;7.78;3.50;;;;;;;15.54;46.33;100808.45;2923107;81;22219;-62
2021/04/24 13:09:39;;;;;;;7.85;3.22;;;;;;;15.28;47.51;100809.06;2923136;81;21164;-66
2021/04/24 13:13:44;;;;;;;6.55;3.02;;;;;;;15.11;46.79;100804.43;2922941;81;21165;-66
2021/04/24 13:17:50;;;;;;;7.37;3.52;;;;;;;15.17;47.44;100795.84;2923100;81;21121;-63
2021/04/24 13:21:56;;;;;;;9.98;3.62;;;;;;;15.28;48.45;100803.70;2932074;80;21148;-66
2021/04/24 13:25:59;;;;;;;4.00;2.58;;;;;;;15.28;47.60;100802.87;2971481;78;21607;-65
2021/04/24 13:30:09;;;;;;;7.22;3.15;;;;;;;15.28;46.52;100798.34;2972094;80;21140;-65
2021/04/24 13:34:20;;;;;;;6.00;3.35;;;;;;;15.45;48.59;100790.55;2972116;80;21691;-66
2021/04/24 13:38:33;;;;;;;5.17;3.72;;;;;;;15.38;47.09;100783.58;2926104;80;21180;-66
2021/04/24 13:42:42;;;;;;;5.83;3.20;;;;;;;15.14;46.32;100794.79;2922760;81;21140;-65
2021/04/24 13:46:51;;;;;;;6.70;2.87;;;;;;;14.93;46.21;100789.08;2899002;81;21144;-66
2021/04/24 13:50:58;;;;;;;7.65;2.58;;;;;;;15.00;47.22;100793.37;2900269;80;21595;-66
2021/04/24 13:55:01;;;;;;;5.83;3.45;;;;;;;15.21;46.01;100785.17;2899678;82;21701;-67
2021/04/24 13:59:07;;;;;;;3.65;2.95;;;;;;;15.32;44.07;100784.64;2899433;80;21102;-65
2021/04/24 14:03:13;;;;;;;12.93;3.58;;;;;;;15.07;45.96;100775.76;2898582;82;21121;-66
2021/04/24 14:07:17;;;;;;;16.93;5.03;;;;;;;14.95;45.92;100767.03;2897903;82;21118;-66
2021/04/24 14:11:21;;;;;;;7.80;4.25;;;;;;;14.81;45.01;100779.00;2897950;82;21102;-64
2021/04/24 14:15:26;;;;;;;7.35;4.12;;;;;;;14.73;45.53;100782.03;2886856;82;21108;-64
2021/04/24 14:19:30;;;;;;;3.60;2.60;;;;;;;14.61;46.56;100788.85;2899832;81;21113;-64
2021/04/24 14:23:35;;;;;;;4.17;2.87;;;;;;;14.63;48.48;100794.05;2900214;81;21114;-65
2021/04/24 14:27:42;;;;;;;5.22;2.98;;;;;;;14.67;47.64;100788.79;2899512;80;21150;-65
2021/04/24 14:31:47;;;;;;;4.87;2.98;;;;;;;14.85;47.05;100783.11;2897812;82;21539;-64
2021/04/24 14:35:53;;;;;;;8.63;3.27;;;;;;;15.14;45.87;100780.88;2898159;82;21114;-64
2021/04/24 14:39:56;;;;;;;7.90;3.22;;;;;;;15.44;47.30;100780.81;2898780;81;21098;-64
2021/04/24 14:44:00;;;;;;;5.08;3.02;;;;;;;15.60;46.54;100787.41;2902094;81;21131;-64
2021/04/24 14:48:04;;;;;;;9.65;3.17;;;;;;;15.68;45.83;100796.89;2922566;79;21578;-64
2021/04/24 14:52:07;;;;;;;4.75;2.12;;;;;;;15.75;46.88;100791.30;2927208;81;21124;-64
2021/04/24 14:56:13;;;;;;;6.60;3.05;;;;;;;15.80;45.20;100780.97;2927122;81;21120;-63
2021/04/24 15:00:21;;;;;;;7.85;3.92;;;;;;;15.67;46.91;100775.09;2924661;81;21109;-66
2021/04/24 15:04:24;;;;;;;7.22;3.85;;;;;;;15.54;45.07;100779.44;2927785;81;21167;-68
2021/04/24 15:08:29;;;;;;;3.92;2.85;;;;;;;15.24;47.50;100776.02;2928985;81;21152;-66
2021/04/24 15:12:33;;;;;;;4.95;2.77;;;;;;;14.98;46.15;100777.94;2927167;80;21085;-67
2021/04/24 15:16:36;;;;;;;8.33;3.33;;;;;;;14.79;47.03;100782.83;2929280;81;21165;-67
2021/04/24 15:20:43;;;;;;;5.05;2.42;;;;;;;14.67;47.49;100778.91;2929021;81;21081;-65
2021/04/24 15:24:47;;;;;;;6.33;2.98;;;;;;;14.59;47.63;100790.82;2928585;81;21189;-67
2021/04/24 15:28:52;;;;;;;5.08;3.08;;;;;;;14.42;46.89;100777.14;2928626;81;21180;-68
2021/04/24 15:32:58;;;;;;;7.53;3.92;;;;;;;14.27;48.27;100781.19;2928686;81;21199;-66
2021/04/24 15:37:01;;;;;;;6.95;3.30;;;;;;;14.22;48.50;100783.44;2926423;79;21550;-67
2021/04/24 15:41:05;;;;;;;4.87;2.72;;;;;;;14.13;47.98;100785.11;2926409;81;21176;-68
2021/04/24 15:45:14;;;;;;;7.08;3.67;;;;;;;14.05;48.71;100795.15;2918341;81;21121;-67
2021/04/24 15:49:18;;;;;;;;;;;;;;;14.10;49.28;100786.22;2913025;81;21128;-66
2021/04/24 15:53:21;;;;;;;8.10;4.85;;;;;;;14.24;49.04;100782.81;2910116;81;20202;-66
2021/04/24 15:57:24;;;;;;;7.33;3.90;;;;;;;14.30;49.42;100780.08;2910398;81;21073;-65
2021/04/24 16:01:31;;;;;;;7.30;3.70;;;;;;;14.25;48.25;100783.16;2882889;81;21551;-68
2021/04/24 16:05:35;;;;;;;3.67;2.67;;;;;;;14.23;47.39;100776.59;2910313;81;22398;-66
2021/04/24 16:09:40;;;;;;;7.87;3.20;;;;;;;14.26;47.43;100776.83;2908475;81;21130;-66
2021/04/24 16:13:43;;;;;;;3.42;3.08;;;;;;;14.30;46.67;100777.41;2907455;81;21153;-67
2021/04/24 16:17:49;;;;;;;7.33;3.27;;;;;;;14.21;48.38;100772.39;2907653;81;21133;-66
2021/04/24 16:21:53;;;;;;;4.33;2.52;;;;;;;14.09;49.24;100773.83;2907253;80;21153;-66
2021/04/24 16:25:58;;;;;;;4.22;3.00;;;;;;;13.98;48.30;100771.28;2925746;79;21127;-67
2021/04/24 16:30:01;;;;;;;4.17;3.00;;;;;;;13.95;47.79;100764.84;2909188;81;21110;-66
2021/04/24 16:34:04;;;;;;;11.18;3.42;;;;;;;14.02;47.62;100760.66;2908291;81;21184;-67
2021/04/24 16:38:08;;;;;;;3.55;2.85;;;;;;;13.97;46.91;100762.91;2909691;81;21129;-63
2021/04/24 16:42:13;;;;;;;4.92;2.95;;;;;;;13.86;48.60;100759.84;2907486;81;21106;-64
2021/04/24 16:46:16;;;;;;;7.15;3.50;;;;;;;13.79;49.06;100755.53;2889197;81;21115;-64
2021/04/24 16:50:22;;;;;;;4.75;3.00;;;;;;;13.81;47.42;100752.70;2865847;80;21135;-62
2021/04/24 16:54:26;;;;;;;6.83;3.97;;;;;;;13.79;47.37;100755.53;2884421;81;21137;-63
2021/04/24 16:58:31;;;;;;;4.97;3.40;;;;;;;13.78;47.05;100752.50;2851083;83;21106;-62
2021/04/24 17:02:33;;;;;;;7.03;4.08;;;;;;;13.74;48.29;100751.56;2866337;82;21115;-65
2021/04/24 17:06:37;;;;;;;5.90;3.12;;;;;;;13.61;49.17;100751.28;2898056;82;21179;-65
2021/04/24 17:10:40;;;;;;;8.73;3.92;;;;;;;13.48;50.28;100762.72;2898237;82;21179;-65
2021/04/24 17:14:44;;;;;;;8.00;5.67;;;;;;;13.31;50.17;100759.64;2898083;82;21533;-64
2021/04/24 17:18:47;;;;;;;11.35;4.60;;;;;;;13.11;51.06;100765.34;2897277;82;21144;-64
2021/04/24 17:22:51;;;;;;;4.08;3.55;;;;;;;12.88;51.63;100773.47;2898027;82;21467;-64
2021/04/24 17:26:56;;;;;;;7.40;4.17;;;;;;;12.67;51.60;100772.96;2896909;80;21155;-63
2021/04/24 17:31:00;;;;;;;5.28;3.65;;;;;;;12.45;52.15;100771.20;2897275;82;21131;-63
2021/04/24 17:35:05;;;;;;;5.12;3.52;;;;;;;12.26;52.74;100780.72;2897721;81;21080;-64
2021/04/24 17:39:09;;;;;;;4.63;4.00;;;;;;;12.11;53.31;100777.48;2898113;82;21416;-65
2021/04/24 17:43:14;;;;;;;8.98;4.30;;;;;;;12.01;53.78;100777.88;2897357;82;21135;-62
2021/04/24 17:47:18;;;;;;;9.05;4.10;;;;;;;11.89;54.19;100778.34;2897222;82;21548;-63
2021/04/24 17:51:24;;;;;;;5.55;4.58;;;;;;;11.80;54.55;100781.25;2897640;81;21125;-63
2021/04/24 17:55:27;;;;;;;7.80;4.73;;;;;;;11.74;54.73;100780.38;2897980;82;21098;-62
2021/04/24 17:59:32;;;;;;;6.28;5.00;;;;;;;11.71;55.21;100785.97;2896982;82;21114;-64
2021/04/24 18:03:37;;;;;;;5.80;3.95;;;;;;;11.67;55.83;100788.02;2897506;82;21153;-64
2021/04/24 18:07:41;;;;;;;7.53;5.55;;;;;;;11.65;56.47;100791.28;2897863;82;21094;-64
2021/04/24 18:11:44;;;;;;;4.85;3.72;;;;;;;11.67;56.62;100785.84;2898170;82;21161;-64
2021/04/24 18:15:47;;;;;;;9.90;4.05;;;;;;;11.69;57.25;100788.77;2898098;82;21561;-63
2021/04/24 18:19:51;;;;;;;13.10;6.72;;;;;;;11.67;57.68;100795.17;2897981;82;21157;-64
2021/04/24 18:23:53;;;;;;;9.35;6.55;;;;;;;11.64;57.67;100805.58;2898001;82;21109;-64
2021/04/24 18:27:57;;;;;;;11.68;5.55;;;;;;;11.66;57.78;100806.30;2898026;80;21206;-64
2021/04/24 18:32:00;;;;;;;9.85;6.50;;;;;;;11.60;57.22;100808.62;2897988;82;21208;-63
2021/04/24 18:36:05;;;;;;;8.95;6.55;;;;;;;11.55;56.83;100817.80;2897997;82;21110;-62
2021/04/24 18:40:11;;;;;;;9.10;7.53;;;;;;;11.50;56.81;100813.32;2897955;82;21094;-62
2021/04/24 18:44:14;;;;;;;10.40;8.05;;;;;;;11.44;56.79;100812.48;2879738;81;21116;-63
2021/04/24 18:48:17;;;;;;;12.18;8.50;;;;;;;11.39;56.89;100811.95;2859249;83;21538;-62
2021/04/24 18:52:21;;;;;;;12.03;6.95;;;;;;;11.32;56.74;100817.41;2859099;83;21622;-63
2021/04/24 18:56:24;;;;;;;12.37;6.90;;;;;;;11.25;56.93;100823.67;2859036;83;21092;-62
2021/04/24 19:00:30;;;;;;;9.85;6.03;;;;;;;11.19;57.00;100819.66;2857830;83;21124;-63